createdAt,value
2017-11-12T00:00:15.055Z,90.2
2017-11-12T00:01:17.474Z,90.2
2017-11-12T00:02:19.892Z,90.2
2017-11-12T00:03:22.325Z,90.2
2017-11-12T00:04:24.746Z,90.3
2017-11-12T00:05:27.170Z,90.3
2017-11-12T00:06:29.588Z,90.3
2017-11-12T00:07:32.013Z,90.3
2017-11-12T00:08:34.430Z,90.4
2017-11-12T00:09:36.854Z,90.3
2017-11-12T00:10:39.275Z,90.4
2017-11-12T00:11:41.701Z,90.4
2017-11-12T00:12:44.139Z,90.4
2017-11-12T00:13:46.604Z,90.4
2017-11-12T00:14:49.030Z,90.4
2017-11-12T00:15:51.463Z,90.4
2017-11-12T00:16:54.780Z,90.4
2017-11-12T00:17:57.638Z,90.3
2017-11-12T00:19:00.069Z,90.4
2017-11-12T00:20:02.499Z,90.3
2017-11-12T00:21:04.930Z,90.3
2017-11-12T00:22:08.972Z,90.3
2017-11-12T00:23:12.770Z,90.4
2017-11-12T00:24:15.215Z,90.3
2017-11-12T00:25:18.804Z,90.3
2017-11-12T00:26:22.698Z,90.2
2017-11-12T00:27:25.113Z,90.2
2017-11-12T00:28:27.539Z,90.3
2017-11-12T00:29:29.967Z,90.3
2017-11-12T00:30:33.593Z,90.3
2017-11-12T00:31:36.055Z,90.2
2017-11-12T00:32:38.489Z,90.2
2017-11-12T00:33:40.914Z,90.2
2017-11-12T00:34:43.350Z,90.2
2017-11-12T00:35:45.794Z,90.2
2017-11-12T00:36:48.238Z,90.3
2017-11-12T00:37:50.670Z,90.1
2017-11-12T00:38:53.128Z,90.2
2017-11-12T00:39:55.614Z,90.2
2017-11-12T00:40:58.050Z,90.2
2017-11-12T00:42:00.472Z,90.2
2017-11-12T00:43:03.261Z,90.4
2017-11-12T00:44:05.702Z,90.2
2017-11-12T00:45:08.138Z,90.3
2017-11-12T00:46:10.592Z,90.3
2017-11-12T00:47:13.018Z,90.4
2017-11-12T00:48:15.486Z,90.4
2017-11-12T00:49:18.364Z,90.4
2017-11-12T00:50:21.284Z,90.4
2017-11-12T00:51:23.794Z,90.4
2017-11-12T00:52:26.439Z,90.4
2017-11-12T00:53:28.863Z,90.3
2017-11-12T00:54:31.304Z,90.2
2017-11-12T00:55:34.850Z,90.3
2017-11-12T00:56:37.961Z,90.3
2017-11-12T00:57:40.556Z,90.2
2017-11-12T00:58:43.113Z,90.2
2017-11-12T00:59:45.635Z,90.2
2017-11-12T01:00:48.580Z,90.2
2017-11-12T01:01:51.072Z,90.2
2017-11-12T01:02:53.839Z,90.3
2017-11-12T01:03:57.284Z,90.4
2017-11-12T01:04:59.807Z,90.3
2017-11-12T01:06:02.573Z,90.3
2017-11-12T01:07:05.379Z,90.4
2017-11-12T01:08:07.837Z,90.3
2017-11-12T01:09:10.288Z,90.3
2017-11-12T01:10:12.712Z,90.3
2017-11-12T01:11:15.172Z,90.4
2017-11-12T01:12:17.737Z,90.3
2017-11-12T01:13:20.175Z,90.3
2017-11-12T01:14:22.970Z,90.3
2017-11-12T01:15:25.404Z,90.3
2017-11-12T01:16:27.852Z,90.4
2017-11-12T01:17:30.275Z,90.4
2017-11-12T01:18:32.723Z,90.4
2017-11-12T01:19:35.180Z,90.4
2017-11-12T01:20:37.573Z,90.4
2017-11-12T01:21:39.994Z,90.4
2017-11-12T01:22:42.407Z,90.4
2017-11-12T01:23:44.847Z,90.4
2017-11-12T01:24:48.040Z,90.3
2017-11-12T01:25:50.457Z,90.3
2017-11-12T01:26:52.873Z,90.4
2017-11-12T01:27:55.293Z,90.4
2017-11-12T01:28:57.717Z,90.3
2017-11-12T01:30:00.162Z,90.2
2017-11-12T01:31:02.580Z,90.3
2017-11-12T01:32:05.041Z,90.2
2017-11-12T01:33:07.452Z,90.2
2017-11-12T01:34:09.877Z,90.2
2017-11-12T01:35:12.289Z,90.2
2017-11-12T01:36:14.714Z,90.3
2017-11-12T01:37:17.495Z,90.1
2017-11-12T01:38:19.910Z,90.2
2017-11-12T01:39:22.328Z,90.2
2017-11-12T01:40:24.779Z,90.3
2017-11-12T01:41:27.208Z,90.2
2017-11-12T01:42:29.988Z,90.3
2017-11-12T01:43:32.423Z,90.3
2017-11-12T01:44:34.834Z,90.3
2017-11-12T01:45:37.615Z,90.3
2017-11-12T01:46:40.065Z,90.3
2017-11-12T01:47:42.485Z,90.2
2017-11-12T01:48:44.910Z,90.2
2017-11-12T01:49:47.701Z,90.1
2017-11-12T01:50:50.113Z,90.3
2017-11-12T01:51:52.561Z,90.3
2017-11-12T01:52:55.369Z,90.4
2017-11-12T01:53:58.149Z,90.3
2017-11-12T01:55:00.583Z,90.3
2017-11-12T01:56:03.021Z,90.3
2017-11-12T01:57:05.448Z,90.2
2017-11-12T01:58:07.887Z,90.2
2017-11-12T01:59:10.318Z,90.1
2017-11-12T02:00:12.755Z,90.1
2017-11-12T02:01:15.174Z,90.2
2017-11-12T02:02:17.586Z,90.2
2017-11-12T02:03:20.031Z,90.1
2017-11-12T02:04:22.452Z,90.2
2017-11-12T02:05:25.276Z,90.2
2017-11-12T02:06:27.693Z,90.1
2017-11-12T02:07:30.110Z,90.1
2017-11-12T02:08:32.541Z,90.1
2017-11-12T02:09:34.968Z,90.2
2017-11-12T02:10:37.379Z,90.1
2017-11-12T02:11:39.803Z,90.2
2017-11-12T02:12:42.228Z,90.2
2017-11-12T02:13:44.663Z,90.2
2017-11-12T02:14:47.076Z,90.1
2017-11-12T02:15:49.511Z,90.2
2017-11-12T02:16:52.298Z,90.1
2017-11-12T02:17:54.717Z,90.2
2017-11-12T02:18:57.178Z,90.1
2017-11-12T02:19:59.563Z,90.2
2017-11-12T02:21:01.991Z,90.2
2017-11-12T02:22:04.405Z,90.3
2017-11-12T02:23:06.830Z,90.3
2017-11-12T02:24:09.237Z,90.2
2017-11-12T02:25:11.657Z,90.2
2017-11-12T02:26:14.076Z,90.2
2017-11-12T02:27:16.885Z,90.1
2017-11-12T02:28:19.302Z,90.1
2017-11-12T02:29:21.719Z,90.2
2017-11-12T02:30:24.129Z,90.2
2017-11-12T02:31:26.558Z,90.1
2017-11-12T02:32:29.335Z,90.2
2017-11-12T02:33:31.755Z,90.2
2017-11-12T02:34:34.549Z,90.2
2017-11-12T02:35:36.971Z,90.1
2017-11-12T02:36:40.103Z,90.2
2017-11-12T02:37:42.567Z,90.2
2017-11-12T02:38:45.338Z,90.2
2017-11-12T02:39:47.756Z,90.2
2017-11-12T02:40:50.541Z,90.2
2017-11-12T02:41:52.955Z,90.2
2017-11-12T02:42:55.377Z,90.2
2017-11-12T02:43:57.790Z,90.2
2017-11-12T02:45:00.564Z,90.1
2017-11-12T02:46:02.985Z,90.1
2017-11-12T02:47:05.406Z,90.2
2017-11-12T02:48:07.842Z,90.2
2017-11-12T02:49:10.267Z,90.3
2017-11-12T02:50:12.693Z,90.3
2017-11-12T02:51:15.480Z,90.3
2017-11-12T02:52:18.250Z,90.2
2017-11-12T02:53:21.047Z,90.2
2017-11-12T02:54:23.891Z,90.3
2017-11-12T02:55:26.299Z,90.2
2017-11-12T02:56:28.720Z,90.2
2017-11-12T02:57:31.534Z,90.3
2017-11-12T02:58:33.938Z,90.3
2017-11-12T02:59:36.369Z,90.2
2017-11-12T03:00:38.801Z,90.3
2017-11-12T03:01:41.203Z,90.3
2017-11-12T03:02:44.000Z,90.3
2017-11-12T03:03:46.443Z,90.3
2017-11-12T03:04:48.869Z,90.4
2017-11-12T03:05:51.294Z,90.3
2017-11-12T03:06:53.716Z,90.4
2017-11-12T03:07:56.137Z,90.4
2017-11-12T03:08:58.562Z,90.4
2017-11-12T03:10:00.972Z,90.4
2017-11-12T03:11:03.392Z,90.4
2017-11-12T03:12:05.818Z,90.5
2017-11-12T03:13:08.241Z,90.5
2017-11-12T03:14:10.640Z,90.5
2017-11-12T03:15:13.057Z,90.6
2017-11-12T03:16:15.481Z,90.6
2017-11-12T03:17:17.900Z,90.5
2017-11-12T03:18:20.320Z,90.5
2017-11-12T03:19:22.733Z,90.4
2017-11-12T03:20:25.497Z,90.4
2017-11-12T03:21:27.917Z,90.4
2017-11-12T03:22:30.704Z,90.5
2017-11-12T03:23:33.116Z,90.5
2017-11-12T03:24:35.552Z,90.5
2017-11-12T03:25:37.982Z,90.5
2017-11-12T03:26:40.433Z,90.5
2017-11-12T03:27:42.825Z,90.5
2017-11-12T03:28:45.235Z,90.4
2017-11-12T03:29:47.672Z,90.4
2017-11-12T03:30:50.110Z,90.4
2017-11-12T03:31:52.525Z,90.4
2017-11-12T03:32:54.945Z,90.4
2017-11-12T03:33:57.361Z,90.4
2017-11-12T03:34:59.779Z,90.4
2017-11-12T03:36:02.208Z,90.4
2017-11-12T03:37:04.627Z,90.4
2017-11-12T03:38:07.033Z,90.5
2017-11-12T03:39:09.810Z,90.5
2017-11-12T03:40:12.224Z,90.5
2017-11-12T03:41:14.646Z,90.4
2017-11-12T03:42:17.068Z,90.5
2017-11-12T03:43:19.483Z,90.4
2017-11-12T03:44:21.913Z,90.4
2017-11-12T03:45:24.326Z,90.4
2017-11-12T03:46:26.727Z,90.4
2017-11-12T03:47:29.159Z,90.4
2017-11-12T03:48:31.567Z,90.4
2017-11-12T03:49:33.984Z,90.4
2017-11-12T03:50:36.402Z,90.3
2017-11-12T03:51:38.826Z,90.4
2017-11-12T03:52:41.248Z,90.4
2017-11-12T03:53:43.682Z,90.4
2017-11-12T03:54:46.104Z,90.3
2017-11-12T03:55:48.883Z,90.4
2017-11-12T03:56:51.300Z,90.4
2017-11-12T03:57:54.087Z,90.5
2017-11-12T03:58:56.506Z,90.5
2017-11-12T03:59:58.928Z,90.5
2017-11-12T04:01:01.712Z,90.5
2017-11-12T04:02:04.135Z,90.5
2017-11-12T04:03:06.537Z,90.5
2017-11-12T04:04:08.959Z,90.4
2017-11-12T04:05:11.373Z,90.5
2017-11-12T04:06:13.796Z,90.5
2017-11-12T04:07:16.580Z,90.5
2017-11-12T04:08:19.004Z,90.4
2017-11-12T04:09:21.410Z,90.4
2017-11-12T04:10:23.852Z,90.5
2017-11-12T04:11:26.261Z,90.5
2017-11-12T04:12:29.052Z,90.5
2017-11-12T04:13:31.490Z,90.5
2017-11-12T04:14:34.278Z,90.4
2017-11-12T04:15:36.696Z,90.4
2017-11-12T04:16:39.119Z,90.4
2017-11-12T04:17:41.518Z,90.5
2017-11-12T04:18:43.950Z,90.5
2017-11-12T04:19:46.370Z,90.6
2017-11-12T04:20:48.789Z,90.6
2017-11-12T04:21:51.207Z,90.5
2017-11-12T04:22:53.621Z,90.5
2017-11-12T04:23:56.032Z,90.5
2017-11-12T04:24:58.457Z,90.5
2017-11-12T04:26:01.225Z,90.5
2017-11-12T04:27:03.647Z,90.4
2017-11-12T04:28:06.071Z,90.4
2017-11-12T04:29:08.499Z,90.5
2017-11-12T04:30:10.914Z,90.4
2017-11-12T04:31:13.695Z,90.4
2017-11-12T04:32:16.107Z,90.3
2017-11-12T04:33:18.532Z,90.5
2017-11-12T04:34:20.957Z,90.6
2017-11-12T04:35:23.725Z,90.6
2017-11-12T04:36:26.507Z,90.6
2017-11-12T04:37:28.934Z,90.6
2017-11-12T04:38:31.358Z,90.6
2017-11-12T04:39:33.818Z,90.5
2017-11-12T04:40:36.200Z,90.4
2017-11-12T04:41:38.639Z,90.4
2017-11-12T04:42:41.034Z,90.4
2017-11-12T04:43:43.816Z,90.4
2017-11-12T04:44:46.623Z,90.3
2017-11-12T04:45:49.040Z,90.4
2017-11-12T04:46:51.452Z,90.4
2017-11-12T04:47:53.877Z,90.4
2017-11-12T04:48:56.297Z,90.4
2017-11-12T04:49:58.719Z,90.5
2017-11-12T04:51:01.143Z,90.4
2017-11-12T04:52:03.550Z,90.4
2017-11-12T04:53:06.329Z,90.4
2017-11-12T04:54:08.757Z,90.5
2017-11-12T04:55:11.183Z,90.5
2017-11-12T04:56:13.600Z,90.4
2017-11-12T04:57:16.014Z,90.4
2017-11-12T04:58:18.439Z,90.4
2017-11-12T04:59:20.859Z,90.4
2017-11-12T05:00:23.280Z,90.3
2017-11-12T05:01:25.680Z,90.4
2017-11-12T05:02:28.101Z,90.3
2017-11-12T05:03:30.532Z,90.3
2017-11-12T05:04:32.978Z,90.4
2017-11-12T05:05:35.762Z,90.3
2017-11-12T05:06:38.178Z,90.4
2017-11-12T05:07:40.600Z,90.5
2017-11-12T05:08:43.027Z,90.5
2017-11-12T05:09:45.449Z,90.5
2017-11-12T05:10:48.251Z,90.4
2017-11-12T05:11:50.665Z,90.4
2017-11-12T05:12:53.092Z,90.4
2017-11-12T05:13:55.874Z,90.4
2017-11-12T05:14:58.293Z,90.4
2017-11-12T05:16:00.716Z,90.4
2017-11-12T05:17:03.124Z,90.3
2017-11-12T05:18:05.553Z,90.3
2017-11-12T05:19:07.972Z,90.3
2017-11-12T05:20:10.392Z,90.3
2017-11-12T05:21:12.810Z,90.4
2017-11-12T05:22:15.225Z,90.3
2017-11-12T05:23:17.644Z,90.2
2017-11-12T05:24:20.062Z,90.3
2017-11-12T05:25:22.478Z,90.3
2017-11-12T05:26:24.889Z,90.3
2017-11-12T05:27:27.323Z,90.3
2017-11-12T05:28:29.729Z,90.4
2017-11-12T05:29:32.143Z,90.4
2017-11-12T05:30:34.571Z,90.4
2017-11-12T05:31:36.984Z,90.4
2017-11-12T05:32:39.409Z,90.4
2017-11-12T05:33:41.834Z,90.3
2017-11-12T05:34:44.246Z,90.4
2017-11-12T05:35:46.668Z,90.4
2017-11-12T05:36:49.101Z,90.5
2017-11-12T05:37:51.514Z,90.5
2017-11-12T05:38:53.923Z,90.4
2017-11-12T05:39:56.346Z,90.4
2017-11-12T05:40:58.762Z,90.4
2017-11-12T05:42:01.177Z,90.4
2017-11-12T05:43:03.613Z,90.5
2017-11-12T05:44:06.030Z,90.4
2017-11-12T05:45:08.469Z,90.4
2017-11-12T05:46:10.890Z,90.4
2017-11-12T05:47:13.301Z,90.5
2017-11-12T05:48:15.720Z,90.5
2017-11-12T05:49:18.147Z,90.4
2017-11-12T05:50:20.555Z,90.4
2017-11-12T05:51:23.331Z,90.5
2017-11-12T05:52:25.742Z,90.5
2017-11-12T05:53:28.154Z,90.5
2017-11-12T05:54:30.572Z,90.6
2017-11-12T05:55:33.337Z,90.6
2017-11-12T05:56:35.758Z,90.5
2017-11-12T05:57:38.176Z,90.5
2017-11-12T05:58:40.598Z,90.5
2017-11-12T05:59:43.027Z,90.4
2017-11-12T06:00:45.431Z,90.5
2017-11-12T06:01:47.861Z,90.3
2017-11-12T06:02:50.276Z,90.4
2017-11-12T06:03:52.699Z,90.4
2017-11-12T06:04:55.113Z,90.4
2017-11-12T06:05:57.894Z,90.4
2017-11-12T06:07:00.304Z,90.4
2017-11-12T06:08:03.082Z,90.4
2017-11-12T06:09:05.499Z,90.4
2017-11-12T06:10:07.912Z,90.4
2017-11-12T06:11:10.328Z,90.4
2017-11-12T06:12:12.743Z,90.3
2017-11-12T06:13:15.170Z,90.3
2017-11-12T06:14:17.600Z,90.3
2017-11-12T06:15:20.357Z,90.3
2017-11-12T06:16:22.780Z,90.3
2017-11-12T06:17:25.969Z,90.4
2017-11-12T06:18:28.366Z,90.4
2017-11-12T06:19:30.786Z,90.4
2017-11-12T06:20:33.194Z,90.3
2017-11-12T06:21:35.618Z,90.3
2017-11-12T06:22:38.041Z,90.4
2017-11-12T06:23:40.463Z,90.3
2017-11-12T06:24:42.875Z,90.4
2017-11-12T06:25:45.304Z,90.4
2017-11-12T06:26:47.719Z,90.4
2017-11-12T06:27:50.142Z,90.4
2017-11-12T06:28:52.923Z,90.4
2017-11-12T06:29:55.337Z,90.4
2017-11-12T06:30:57.777Z,90.4
2017-11-12T06:32:00.541Z,90.5
2017-11-12T06:33:02.946Z,90.4
2017-11-12T06:34:05.384Z,90.4
2017-11-12T06:35:07.800Z,90.4
2017-11-12T06:36:10.211Z,90.3
2017-11-12T06:37:12.626Z,90.4
2017-11-12T06:38:15.052Z,90.3
2017-11-12T06:39:17.465Z,90.3
2017-11-12T06:40:19.916Z,90.4
2017-11-12T06:41:22.355Z,90.3
2017-11-12T06:42:24.776Z,90.3
2017-11-12T06:43:27.204Z,90.3
2017-11-12T06:44:29.623Z,90.3
2017-11-12T06:45:32.037Z,90.3
2017-11-12T06:46:34.469Z,90.3
2017-11-12T06:47:36.877Z,90.3
2017-11-12T06:48:39.298Z,90.3
2017-11-12T06:49:41.715Z,90.3
2017-11-12T06:50:44.134Z,90.3
2017-11-12T06:51:46.561Z,90.3
2017-11-12T06:52:48.976Z,90.3
2017-11-12T06:53:51.395Z,90.2
2017-11-12T06:54:53.818Z,90.3
2017-11-12T06:55:56.241Z,90.3
2017-11-12T06:56:58.674Z,90.3
2017-11-12T06:58:01.092Z,90.4
2017-11-12T06:59:03.503Z,90.3
2017-11-12T07:00:06.295Z,90.4
2017-11-12T07:01:08.708Z,90.3
2017-11-12T07:02:11.122Z,90.3
2017-11-12T07:03:13.540Z,90.4
2017-11-12T07:04:15.953Z,90.5
2017-11-12T07:05:18.384Z,90.6
2017-11-12T07:06:21.164Z,90.7
2017-11-12T07:07:23.572Z,90.7
2017-11-12T07:08:25.997Z,90.7
2017-11-12T07:09:28.417Z,90.7
2017-11-12T07:10:30.823Z,90.7
2017-11-12T07:11:33.628Z,90.7
2017-11-12T07:12:36.045Z,90.7
2017-11-12T07:13:38.473Z,90.6
2017-11-12T07:14:40.880Z,90.6
2017-11-12T07:15:43.661Z,90.7
2017-11-12T07:16:46.076Z,90.7
2017-11-12T07:17:48.503Z,90.6
2017-11-12T07:18:50.925Z,90.7
2017-11-12T07:19:53.344Z,90.7
2017-11-12T07:20:55.765Z,90.6
2017-11-12T07:21:58.193Z,90.7
2017-11-12T07:23:00.611Z,90.6
2017-11-12T07:24:03.043Z,90.6
2017-11-12T07:25:05.462Z,90.7
2017-11-12T07:26:07.881Z,90.7
2017-11-12T07:27:10.302Z,90.8
2017-11-12T07:28:13.073Z,90.9
2017-11-12T07:29:15.491Z,91
2017-11-12T07:30:17.921Z,91.1
2017-11-12T07:31:20.687Z,91.2
2017-11-12T07:32:23.117Z,91.3
2017-11-12T07:33:25.559Z,91.4
2017-11-12T07:34:28.345Z,91.5
2017-11-12T07:35:30.763Z,91.6
2017-11-12T07:36:33.183Z,91.7
2017-11-12T07:37:35.616Z,91.8
2017-11-12T07:38:38.012Z,92
2017-11-12T07:39:40.436Z,92.2
2017-11-12T07:40:42.870Z,92.2
2017-11-12T07:41:45.645Z,92.2
2017-11-12T07:42:48.062Z,92.3
2017-11-12T07:43:50.842Z,92.2
2017-11-12T07:44:53.258Z,92.3
2017-11-12T07:45:55.694Z,92.4
2017-11-12T07:46:58.123Z,92.3
2017-11-12T07:48:00.537Z,92.5
2017-11-12T07:49:02.965Z,92.7
2017-11-12T07:50:05.401Z,92.7
2017-11-12T07:51:07.810Z,92.6
2017-11-12T07:52:10.231Z,92.6
2017-11-12T07:53:12.648Z,92.5
2017-11-12T07:54:15.074Z,92.3
2017-11-12T07:55:17.864Z,91.8
2017-11-12T07:56:20.281Z,92.1
2017-11-12T07:57:23.055Z,91.6
2017-11-12T07:58:25.482Z,91.5
2017-11-12T07:59:28.279Z,92
2017-11-12T08:00:30.700Z,91.5
2017-11-12T08:01:33.127Z,91.4
2017-11-12T08:02:35.551Z,91.4
2017-11-12T08:03:37.979Z,91.4
2017-11-12T08:04:40.414Z,91.4
2017-11-12T08:05:42.840Z,91.4
2017-11-12T08:06:45.272Z,91.3
2017-11-12T08:07:47.681Z,91.1
2017-11-12T08:08:50.463Z,91.4
2017-11-12T08:09:52.885Z,91.3
2017-11-12T08:10:55.308Z,91.3
2017-11-12T08:11:57.733Z,91.2
2017-11-12T08:13:00.173Z,90.9
2017-11-12T08:14:02.571Z,91
2017-11-12T08:15:05.005Z,91.1
2017-11-12T08:16:07.428Z,91.3
2017-11-12T08:17:09.849Z,91.2
2017-11-12T08:18:12.276Z,91.3
2017-11-12T08:19:14.698Z,91.2
2017-11-12T08:20:17.100Z,91.2
2017-11-12T08:21:19.533Z,91.1
2017-11-12T08:22:22.314Z,90.9
2017-11-12T08:23:24.742Z,90.8
2017-11-12T08:24:27.156Z,90.8
2017-11-12T08:25:29.577Z,90.9
2017-11-12T08:26:31.998Z,91.1
2017-11-12T08:27:34.414Z,91.1
2017-11-12T08:28:37.538Z,91.1
2017-11-12T08:29:39.966Z,91.1
2017-11-12T08:30:42.385Z,91.2
2017-11-12T08:31:44.809Z,91.1
2017-11-12T08:32:47.232Z,90.9
2017-11-12T08:33:49.654Z,90.9
2017-11-12T08:34:52.072Z,91
2017-11-12T08:35:54.507Z,91.1
2017-11-12T08:36:56.992Z,91
2017-11-12T08:37:59.401Z,91.2
2017-11-12T08:39:01.823Z,91.1
2017-11-12T08:40:04.259Z,91.1
2017-11-12T08:41:06.686Z,91.1
2017-11-12T08:42:09.114Z,91.1
2017-11-12T08:43:11.536Z,90.9
2017-11-12T08:44:13.956Z,90.9
2017-11-12T08:45:16.395Z,91
2017-11-12T08:46:18.817Z,91.1
2017-11-12T08:47:21.614Z,91
2017-11-12T08:48:24.039Z,91.2
2017-11-12T08:49:26.457Z,91.1
2017-11-12T08:50:28.879Z,91.1
2017-11-12T08:51:31.310Z,91.2
2017-11-12T08:52:33.725Z,91.4
2017-11-12T08:53:36.141Z,91.2
2017-11-12T08:54:38.591Z,91.2
2017-11-12T08:55:41.006Z,91.3
2017-11-12T08:56:43.423Z,91.4
2017-11-12T08:57:45.862Z,91.4
2017-11-12T08:58:48.286Z,91.5
2017-11-12T08:59:50.721Z,91.5
2017-11-12T09:00:53.507Z,91.6
2017-11-12T09:01:56.413Z,91.6
2017-11-12T09:02:58.831Z,91.6
2017-11-12T09:04:01.481Z,91.5
2017-11-12T09:05:04.880Z,91.4
2017-11-12T09:06:07.284Z,91.4
2017-11-12T09:07:09.706Z,91.5
2017-11-12T09:08:12.132Z,91.6
2017-11-12T09:09:14.554Z,91.7
2017-11-12T09:10:16.980Z,91.8
2017-11-12T09:11:19.422Z,91.5
2017-11-12T09:12:21.836Z,91.3
2017-11-12T09:13:24.252Z,91.5
2017-11-12T09:14:26.677Z,91.6
2017-11-12T09:15:29.089Z,91.8
2017-11-12T09:16:31.516Z,92
2017-11-12T09:17:33.939Z,92.2
2017-11-12T09:18:36.711Z,92.5
2017-11-12T09:19:39.142Z,92.5
2017-11-12T09:20:41.574Z,92.5
2017-11-12T09:21:43.984Z,92.7
2017-11-12T09:22:46.408Z,92.8
2017-11-12T09:23:49.195Z,92.8
2017-11-12T09:24:51.602Z,92.8
2017-11-12T09:25:54.073Z,92.9
2017-11-12T09:26:57.540Z,92.7
2017-11-12T09:28:01.759Z,92.5
2017-11-12T09:29:04.554Z,92.4
2017-11-12T09:30:06.984Z,92.1
2017-11-12T09:31:09.783Z,91.9
2017-11-12T09:32:12.205Z,91.9
2017-11-12T09:33:14.618Z,91.7
2017-11-12T09:34:17.034Z,91.7
2017-11-12T09:35:19.472Z,91.6
2017-11-12T09:36:22.096Z,91.4
2017-11-12T09:37:24.902Z,91.3
2017-11-12T09:38:27.720Z,91.3
2017-11-12T09:39:30.152Z,91.3
2017-11-12T09:40:32.576Z,91.4
2017-11-12T09:41:35.357Z,91.3
2017-11-12T09:42:37.799Z,90.9
2017-11-12T09:43:40.602Z,91.1
2017-11-12T09:44:43.443Z,91.2
2017-11-12T09:45:45.874Z,91.4
2017-11-12T09:46:48.302Z,91.5
2017-11-12T09:47:51.091Z,91.5
2017-11-12T09:48:53.536Z,91.4
2017-11-12T09:49:55.971Z,91.5
2017-11-12T09:50:58.420Z,91.4
2017-11-12T09:52:00.844Z,91.4
2017-11-12T09:53:03.288Z,91.4
2017-11-12T09:54:05.716Z,91.1
2017-11-12T09:55:08.158Z,91.3
2017-11-12T09:56:10.591Z,91.4
2017-11-12T09:57:15.354Z,91.8
2017-11-12T09:58:22.216Z,92.2
2017-11-12T09:59:25.025Z,92.6
2017-11-12T10:00:27.464Z,92.7
2017-11-12T10:01:29.891Z,92.6
2017-11-12T10:02:32.415Z,92.6
2017-11-12T10:03:39.020Z,92.6
2017-11-12T10:04:53.442Z,92.4
2017-11-12T10:06:05.748Z,92.5
2017-11-12T10:07:08.719Z,92.9
2017-11-12T10:08:19.238Z,93
2017-11-12T10:09:33.883Z,93.1
2017-11-12T10:10:54.756Z,92.8
2017-11-12T10:12:13.765Z,92.9
2017-11-12T10:13:27.258Z,92.9
2017-11-12T10:14:40.525Z,92.7
2017-11-12T10:15:53.421Z,92.7
2017-11-12T10:16:55.800Z,92.6
2017-11-12T10:17:58.174Z,92.6
2017-11-12T10:19:00.537Z,92.4
2017-11-12T10:20:02.919Z,92.3
2017-11-12T10:21:05.300Z,91.9
2017-11-12T10:22:07.660Z,92
2017-11-12T10:23:10.032Z,91.8
2017-11-12T10:24:12.408Z,91.7
2017-11-12T10:25:14.783Z,91.4
2017-11-12T10:26:17.162Z,91.2
2017-11-12T10:27:19.526Z,91.2
2017-11-12T10:28:21.913Z,91.2
2017-11-12T10:29:24.283Z,91.3
2017-11-12T10:30:26.661Z,91.4
2017-11-12T10:31:29.044Z,91.4
2017-11-12T10:32:31.417Z,91.3
2017-11-12T10:33:33.782Z,90.9
2017-11-12T10:34:36.521Z,91.1
2017-11-12T10:35:38.892Z,91.1
2017-11-12T10:36:41.260Z,90.9
2017-11-12T10:37:43.640Z,90.9
2017-11-12T10:38:46.006Z,91
2017-11-12T10:39:48.383Z,91.1
2017-11-12T10:40:51.115Z,91.3
2017-11-12T10:41:53.485Z,91.2
2017-11-12T10:42:55.862Z,91.2
2017-11-12T10:43:58.252Z,91.2
2017-11-12T10:45:02.672Z,90.7
2017-11-12T10:46:09.500Z,90.4
2017-11-12T10:47:12.068Z,90.2
2017-11-12T10:48:15.286Z,90.5
2017-11-12T10:49:19.421Z,90.3
2017-11-12T10:50:22.392Z,90
2017-11-12T10:51:27.209Z,90
2017-11-12T10:52:31.648Z,90
2017-11-12T10:53:34.526Z,90.2
2017-11-12T10:54:37.517Z,90.7
2017-11-12T10:55:40.027Z,90.7
2017-11-12T10:56:43.544Z,90.6
2017-11-12T10:57:46.336Z,90.7
2017-11-12T10:58:49.432Z,90.6
2017-11-12T10:59:52.323Z,90.7
2017-11-12T11:00:56.324Z,91
2017-11-12T11:01:58.745Z,91.2
2017-11-12T11:03:01.580Z,91.2
2017-11-12T11:04:04.987Z,90.5
2017-11-12T11:05:07.935Z,90.8
2017-11-12T11:06:10.871Z,90.9
2017-11-12T11:07:14.618Z,90.9
2017-11-12T11:08:17.537Z,91.2
2017-11-12T11:09:20.475Z,91.4
2017-11-12T11:10:22.896Z,91.5
2017-11-12T11:11:25.339Z,91.4
2017-11-12T11:12:27.818Z,91.1
2017-11-12T11:13:30.257Z,91.1
2017-11-12T11:14:32.683Z,91.2
2017-11-12T11:15:35.267Z,91.5
2017-11-12T11:16:38.390Z,91.4
2017-11-12T11:17:41.073Z,91.6
2017-11-12T11:18:44.297Z,91.7
2017-11-12T11:19:47.148Z,91.7
2017-11-12T11:20:49.572Z,91.4
2017-11-12T11:21:52.155Z,91.3
2017-11-12T11:22:54.543Z,91.3
2017-11-12T11:23:57.003Z,91.5
2017-11-12T11:24:59.433Z,91.6
2017-11-12T11:26:01.840Z,91.7
2017-11-12T11:27:04.695Z,91.8
2017-11-12T11:28:07.587Z,91.9
2017-11-12T11:29:10.059Z,91.9
2017-11-12T11:30:12.931Z,91.8
2017-11-12T11:31:16.062Z,91.6
2017-11-12T11:32:18.481Z,91.7
2017-11-12T11:33:20.967Z,91.7
2017-11-12T11:34:24.171Z,91.6
2017-11-12T11:35:26.621Z,91.5
2017-11-12T11:36:29.083Z,91.4
2017-11-12T11:37:31.945Z,90.8
2017-11-12T11:38:35.343Z,90.6
2017-11-12T11:39:37.797Z,90.5
2017-11-12T11:40:40.237Z,91
2017-11-12T11:41:44.417Z,91.2
2017-11-12T11:42:47.268Z,91.1
2017-11-12T11:43:49.728Z,91.3
2017-11-12T11:44:52.217Z,91.4
2017-11-12T11:45:55.727Z,91.6
2017-11-12T11:46:58.250Z,91.3
2017-11-12T11:48:01.288Z,91.2
2017-11-12T11:49:03.723Z,90.8
2017-11-12T11:50:06.135Z,90.8
2017-11-12T11:51:09.038Z,90.6
2017-11-12T11:52:11.722Z,90.4
2017-11-12T11:53:14.602Z,90
2017-11-12T11:54:17.194Z,90
2017-11-12T11:55:20.463Z,90.2
2017-11-12T11:56:23.118Z,90.2
2017-11-12T11:57:26.012Z,90.1
2017-11-12T11:58:28.839Z,90.3
2017-11-12T11:59:31.681Z,90.6
2017-11-12T12:00:35.049Z,90.7
2017-11-12T12:01:38.793Z,90.7
2017-11-12T12:02:42.671Z,90.9
2017-11-12T12:03:45.752Z,91.1
2017-11-12T12:04:48.277Z,91.2
2017-11-12T12:05:50.772Z,91.5
2017-11-12T12:06:53.277Z,91.1
2017-11-12T12:07:56.161Z,91.3
2017-11-12T12:08:58.778Z,91.5
2017-11-12T12:10:01.342Z,92
2017-11-12T12:11:06.580Z,92.4
2017-11-12T12:12:09.964Z,92.7
2017-11-12T12:13:12.597Z,92.7
2017-11-12T12:14:15.867Z,92.6
2017-11-12T12:15:18.540Z,92.5
2017-11-12T12:16:22.614Z,92.5
2017-11-12T12:17:25.756Z,92.3
2017-11-12T12:18:29.305Z,92.4
2017-11-12T12:19:31.764Z,91.9
2017-11-12T12:20:34.197Z,91.6
2017-11-12T12:21:37.387Z,91.4
2017-11-12T12:22:40.897Z,91.2
2017-11-12T12:23:43.481Z,90.4
2017-11-12T12:24:48.155Z,90.1
2017-11-12T12:25:52.502Z,89.9
2017-11-12T12:26:56.056Z,90.1
2017-11-12T12:27:59.255Z,90
2017-11-12T12:29:01.707Z,90.3
2017-11-12T12:30:04.131Z,90.5
2017-11-12T12:31:06.824Z,90.9
2017-11-12T12:32:09.354Z,91
2017-11-12T12:33:13.083Z,91.2
2017-11-12T12:34:15.747Z,91.4
2017-11-12T12:35:18.237Z,91.1
2017-11-12T12:36:21.250Z,91.3
2017-11-12T12:37:24.407Z,91.3
2017-11-12T12:38:28.623Z,91.1
2017-11-12T12:39:31.822Z,90.6
2017-11-12T12:40:34.270Z,90.4
2017-11-12T12:41:37.794Z,90.7
2017-11-12T12:42:41.149Z,90.6
2017-11-12T12:43:44.110Z,90.8
2017-11-12T12:44:47.572Z,90.7
2017-11-12T12:45:50.936Z,90.5
2017-11-12T12:46:54.092Z,90
2017-11-12T12:47:57.178Z,89.7
2017-11-12T12:49:00.456Z,89.7
2017-11-12T12:50:02.988Z,90
2017-11-12T12:51:07.397Z,90.2
2017-11-12T12:52:10.830Z,90.2
2017-11-12T12:53:13.802Z,89.4
2017-11-12T12:54:17.007Z,89.7
2017-11-12T12:55:19.956Z,90
2017-11-12T12:56:23.029Z,89.8
2017-11-12T12:57:26.222Z,89.9
2017-11-12T12:58:30.637Z,89.9
2017-11-12T12:59:37.654Z,90
2017-11-12T13:00:43.702Z,90.2
2017-11-12T13:01:47.280Z,90.2
2017-11-12T13:02:54.721Z,89.8
2017-11-12T13:04:02.694Z,89.4
2017-11-12T13:05:08.122Z,90
2017-11-12T13:06:17.679Z,90.1
2017-11-12T13:07:28.163Z,90.1
2017-11-12T13:08:38.117Z,90.2
2017-11-12T13:09:47.681Z,90.4
2017-11-12T13:10:58.435Z,90.7
2017-11-12T13:12:08.877Z,90.9
2017-11-12T13:13:18.984Z,91
2017-11-12T13:14:28.955Z,91.1
2017-11-12T13:15:39.488Z,91.2
2017-11-12T13:16:50.063Z,91.2
2017-11-12T13:17:59.506Z,91.1
2017-11-12T13:19:08.497Z,91
2017-11-12T13:20:15.583Z,90.9
2017-11-12T13:21:20.093Z,90.8
2017-11-12T13:22:26.947Z,90.6
2017-11-12T13:23:34.324Z,90.6
2017-11-12T13:24:42.038Z,90.8
2017-11-12T13:25:48.178Z,90.6
2017-11-12T13:26:57.788Z,90.6
2017-11-12T13:28:06.171Z,90.7
2017-11-12T13:29:14.608Z,90.7
2017-11-12T13:30:22.027Z,90.2
2017-11-12T13:31:24.460Z,90.2
2017-11-12T13:32:31.162Z,90.2
2017-11-12T13:33:43.518Z,90.2
2017-11-12T13:34:53.871Z,90.1
2017-11-12T13:36:01.253Z,90.2
2017-11-12T13:37:05.429Z,90
2017-11-12T13:38:12.689Z,89.5
2017-11-12T13:39:19.198Z,88.7
2017-11-12T13:40:21.571Z,88.5
2017-11-12T13:41:23.958Z,88.5
2017-11-12T13:42:26.326Z,88.9
2017-11-12T13:43:28.708Z,89.8
2017-11-12T13:44:31.079Z,89.8
2017-11-12T13:45:33.478Z,90
2017-11-12T13:46:36.182Z,90.1
2017-11-12T13:47:40.531Z,90.2
2017-11-12T13:48:54.827Z,90.4
2017-11-12T13:50:09.603Z,90.3
2017-11-12T13:51:21.792Z,90.4
2017-11-12T13:52:37.721Z,90.6
2017-11-12T13:53:53.141Z,90.7
2017-11-12T13:54:59.621Z,90.5
2017-11-12T13:56:02.001Z,90.5
2017-11-12T13:57:04.369Z,90.4
2017-11-12T13:58:06.735Z,90.6
2017-11-12T13:59:09.113Z,90.6
2017-11-12T14:00:11.489Z,90.5
2017-11-12T14:01:13.861Z,90.5